createdAt,value
2023-02-22T00:01:28.409Z,10.53
2023-02-22T00:03:58.543Z,9.43
2023-02-22T00:06:26.542Z,10.57
2023-02-22T00:08:55.769Z,9.37
2023-02-22T00:11:24.182Z,9.83
2023-02-22T00:13:52.288Z,9.17
2023-02-22T00:16:22.657Z,9.30
2023-02-22T00:18:51.105Z,10.10
2023-02-22T00:21:21.231Z,10.10
2023-02-22T00:23:50.554Z,9.50
2023-02-22T00:26:24.267Z,9.13
2023-02-22T00:28:54.739Z,9.10
2023-02-22T00:31:23.723Z,9.57
2023-02-22T00:33:51.883Z,10.63
2023-02-22T00:36:21.688Z,9.67
2023-02-22T00:38:50.005Z,10.17
2023-02-22T00:41:18.642Z,9.97
2023-02-22T00:43:46.841Z,9.70
2023-02-22T00:46:15.358Z,9.20
2023-02-22T00:48:43.624Z,9.80
2023-02-22T00:51:12.232Z,10.17
2023-02-22T00:53:41.968Z,10.00
2023-02-22T00:56:10.432Z,9.00
2023-02-22T00:58:38.566Z,9.50
2023-02-22T01:01:07.026Z,9.50
2023-02-22T01:03:35.495Z,9.87
2023-02-22T01:06:03.645Z,9.80
2023-02-22T01:08:32.715Z,9.70
2023-02-22T01:11:02.146Z,9.17
2023-02-22T01:13:30.220Z,8.93
2023-02-22T01:15:58.308Z,9.20
2023-02-22T01:18:27.080Z,9.57
2023-02-22T01:20:55.271Z,9.40
2023-02-22T01:23:23.290Z,9.03
2023-02-22T01:25:51.339Z,9.37
2023-02-22T01:28:22.575Z,9.30
2023-02-22T01:30:50.830Z,10.03
2023-02-22T01:33:18.924Z,9.50
2023-02-22T01:35:47.515Z,9.40
2023-02-22T01:38:15.570Z,10.07
2023-02-22T01:40:45.824Z,10.33
2023-02-22T01:43:23.354Z,9.47
2023-02-22T01:45:57.425Z,10.57
2023-02-22T01:48:32.030Z,10.40
2023-02-22T01:51:03.792Z,10.47
2023-02-22T01:53:36.582Z,10.73
2023-02-22T01:56:05.877Z,10.30
2023-02-22T01:58:39.420Z,11.50
2023-02-22T02:01:08.935Z,10.67
2023-02-22T02:03:39.906Z,11.77
2023-02-22T02:06:12.358Z,11.10
2023-02-22T02:08:49.978Z,11.10
2023-02-22T02:11:21.285Z,11.03
2023-02-22T02:13:55.200Z,11.13
2023-02-22T02:16:24.948Z,12.20
2023-02-22T02:18:53.649Z,10.80
2023-02-22T02:21:44.853Z,11.57
2023-02-22T02:24:36.051Z,11.87
2023-02-22T02:27:12.733Z,11.13
2023-02-22T02:30:27.570Z,11.13
2023-02-22T02:33:00.118Z,11.33
2023-02-22T02:35:39.501Z,11.20
2023-02-22T02:38:13.830Z,11.90
2023-02-22T02:40:49.555Z,12.00
2023-02-22T02:43:26.487Z,11.13
2023-02-22T02:46:00.264Z,10.80
2023-02-22T02:48:32.624Z,11.00
2023-02-22T02:51:02.772Z,11.40
2023-02-22T02:53:36.269Z,11.37
2023-02-22T02:56:05.068Z,10.93
2023-02-22T02:58:33.426Z,10.70
2023-02-22T03:01:04.468Z,10.80
2023-02-22T03:03:53.655Z,10.80
2023-02-22T03:06:49.092Z,11.27
2023-02-22T03:09:28.286Z,11.43
2023-02-22T03:12:09.347Z,10.60
2023-02-22T03:14:43.355Z,10.73
2023-02-22T03:17:19.280Z,10.47
2023-02-22T03:19:53.233Z,11.13
2023-02-22T03:22:27.939Z,11.20
2023-02-22T03:25:08.993Z,10.50
2023-02-22T03:27:43.802Z,10.57
2023-02-22T03:30:17.627Z,10.97
2023-02-22T03:32:58.981Z,10.60
2023-02-22T03:35:34.396Z,10.67
2023-02-22T03:38:07.473Z,10.33
2023-02-22T03:40:39.759Z,10.47
2023-02-22T03:43:11.004Z,10.77
2023-02-22T03:45:43.589Z,10.70
2023-02-22T03:48:21.085Z,10.93
2023-02-22T03:50:52.717Z,10.80
2023-02-22T03:53:23.343Z,10.53
2023-02-22T03:55:54.294Z,11.03
2023-02-22T03:58:25.214Z,10.80
2023-02-22T04:00:54.392Z,10.17
2023-02-22T04:03:23.829Z,10.37
2023-02-22T04:05:53.596Z,9.93
2023-02-22T04:08:21.975Z,9.37
2023-02-22T04:10:50.353Z,9.87
2023-02-22T04:13:18.690Z,9.63
2023-02-22T04:15:47.002Z,8.53
2023-02-22T04:18:17.480Z,7.00
2023-02-22T04:20:46.537Z,3.73
2023-02-22T04:23:17.825Z,5.60
2023-02-22T04:25:46.184Z,6.53
2023-02-22T04:28:14.654Z,2.40
2023-02-22T04:30:44.150Z,2.50
2023-02-22T04:33:12.844Z,2.73
2023-02-22T04:35:42.309Z,1.77
2023-02-22T04:38:11.593Z,1.83
2023-02-22T04:40:41.154Z,1.70
2023-02-22T04:43:09.427Z,2.60
2023-02-22T04:45:37.423Z,1.70
2023-02-22T04:48:05.785Z,1.67
2023-02-22T04:50:33.752Z,1.70
2023-02-22T04:53:01.858Z,2.00
2023-02-22T04:55:30.021Z,2.20
2023-02-22T04:57:59.415Z,2.23
2023-02-22T05:00:27.660Z,2.20
2023-02-22T05:02:55.730Z,1.80
2023-02-22T05:05:24.030Z,1.50
2023-02-22T05:07:52.688Z,2.40
2023-02-22T05:10:20.957Z,2.20
2023-02-22T05:12:49.071Z,2.10
2023-02-22T05:15:21.460Z,1.70
2023-02-22T05:17:50.112Z,2.03
2023-02-22T05:20:25.650Z,2.10
2023-02-22T05:22:54.084Z,1.90
2023-02-22T05:25:22.084Z,1.63
2023-02-22T05:27:59.432Z,1.47
2023-02-22T05:30:32.029Z,1.73
2023-02-22T05:33:03.377Z,1.50
2023-02-22T05:35:31.759Z,1.63
2023-02-22T05:38:03.272Z,1.27
2023-02-22T05:40:42.077Z,1.13
2023-02-22T05:43:10.699Z,1.40
2023-02-22T05:45:40.323Z,1.57
2023-02-22T05:48:08.659Z,1.57
2023-02-22T05:50:36.766Z,1.57
2023-02-22T05:53:05.708Z,1.33
2023-02-22T05:55:33.793Z,1.93
2023-02-22T05:58:02.309Z,1.63
2023-02-22T06:00:31.908Z,1.33
2023-02-22T06:03:13.056Z,1.63
2023-02-22T06:05:41.401Z,1.90
2023-02-22T06:08:10.510Z,1.80
2023-02-22T06:10:38.666Z,1.83
2023-02-22T06:13:07.874Z,1.40
2023-02-22T06:15:37.238Z,1.50
2023-02-22T06:18:20.437Z,1.17
2023-02-22T06:20:48.990Z,1.20
2023-02-22T06:23:17.302Z,1.30
2023-02-22T06:25:46.645Z,1.53
2023-02-22T06:28:14.959Z,0.77
2023-02-22T06:30:53.454Z,0.70
2023-02-22T06:33:25.590Z,1.53
2023-02-22T06:35:54.686Z,2.10
2023-02-22T06:38:27.965Z,2.03
2023-02-22T06:40:57.063Z,2.10
2023-02-22T06:43:25.841Z,1.53
2023-02-22T06:45:55.476Z,3.33
2023-02-22T06:48:25.732Z,3.00
2023-02-22T06:50:54.081Z,2.40
2023-02-22T06:53:22.783Z,2.77
2023-02-22T06:55:51.002Z,2.03
2023-02-22T06:58:19.060Z,0.87
2023-02-22T07:00:47.142Z,1.43
2023-02-22T07:03:17.560Z,2.13
2023-02-22T07:05:47.346Z,1.53
2023-02-22T07:08:15.649Z,1.80
2023-02-22T07:10:43.655Z,1.60
2023-02-22T07:13:11.667Z,2.00
2023-02-22T07:15:39.653Z,3.63
2023-02-22T07:18:08.180Z,3.57
2023-02-22T07:20:41.111Z,1.00
2023-02-22T07:23:16.743Z,1.77
2023-02-22T07:25:45.081Z,1.60
2023-02-22T07:28:13.315Z,3.03
2023-02-22T07:30:41.421Z,1.57
2023-02-22T07:33:13.888Z,1.10
2023-02-22T07:35:46.741Z,0.90
2023-02-22T07:38:18.487Z,1.40
2023-02-22T07:40:50.223Z,1.20
2023-02-22T07:43:20.812Z,0.70
2023-02-22T07:45:50.780Z,1.23
2023-02-22T07:48:20.342Z,1.03
2023-02-22T07:50:48.903Z,0.97
2023-02-22T07:53:21.196Z,1.00
2023-02-22T07:55:51.163Z,1.13
2023-02-22T07:58:21.622Z,1.10
2023-02-22T08:00:49.697Z,1.40
2023-02-22T08:03:20.289Z,1.33
2023-02-22T08:05:50.604Z,1.37
2023-02-22T08:08:20.879Z,1.03
2023-02-22T08:10:49.547Z,1.10
2023-02-22T08:13:18.262Z,1.00
2023-02-22T08:15:47.259Z,1.57
2023-02-22T08:18:19.222Z,0.87
2023-02-22T08:20:49.373Z,1.53
2023-02-22T08:23:22.645Z,1.10
2023-02-22T08:25:50.755Z,1.10
2023-02-22T08:28:22.654Z,1.00
2023-02-22T08:30:51.632Z,1.00
2023-02-22T08:33:22.206Z,1.00
2023-02-22T08:35:51.959Z,1.10
2023-02-22T08:38:25.093Z,0.90
2023-02-22T08:40:53.330Z,1.40
2023-02-22T08:43:23.987Z,1.10
2023-02-22T08:45:56.146Z,1.10
2023-02-22T08:48:25.818Z,1.20
2023-02-22T08:50:54.125Z,0.80
2023-02-22T08:53:23.723Z,1.23
2023-02-22T08:55:51.800Z,1.10
2023-02-22T08:58:19.995Z,0.97
2023-02-22T09:00:48.060Z,1.10
2023-02-22T09:03:16.889Z,1.00
2023-02-22T09:05:45.772Z,0.90
2023-02-22T09:08:14.672Z,1.10
2023-02-22T09:10:45.431Z,1.00
2023-02-22T09:13:14.043Z,1.00
2023-02-22T09:15:42.562Z,1.00
2023-02-22T09:18:14.858Z,0.83
2023-02-22T09:20:44.442Z,0.87
2023-02-22T09:23:14.557Z,0.63
2023-02-22T09:25:46.562Z,1.53
2023-02-22T09:28:15.350Z,1.27
2023-02-22T09:30:43.956Z,1.60
2023-02-22T09:33:18.203Z,1.10
2023-02-22T09:35:48.051Z,1.53
2023-02-22T09:38:18.023Z,1.63
2023-02-22T09:40:51.982Z,1.27
2023-02-22T09:43:32.432Z,1.10
2023-02-22T09:46:13.963Z,0.87
2023-02-22T09:48:57.982Z,1.00
2023-02-22T09:51:30.070Z,0.97
2023-02-22T09:54:02.625Z,1.10
2023-02-22T09:56:35.103Z,0.67
2023-02-22T09:59:07.199Z,1.63
2023-02-22T10:01:42.728Z,1.00
2023-02-22T10:04:19.861Z,1.27
2023-02-22T10:07:08.128Z,1.07
2023-02-22T10:09:42.787Z,0.93
2023-02-22T10:12:20.954Z,1.10
2023-02-22T10:15:21.893Z,1.10
2023-02-22T10:18:00.814Z,0.83
2023-02-22T10:20:43.922Z,0.90
2023-02-22T10:23:23.709Z,0.67
2023-02-22T10:25:57.441Z,0.70
2023-02-22T10:28:31.682Z,0.90
2023-02-22T10:31:06.331Z,0.90
2023-02-22T10:33:39.687Z,1.17
2023-02-22T10:36:17.426Z,0.60
2023-02-22T10:38:53.006Z,1.03
2023-02-22T10:41:27.631Z,0.83
2023-02-22T10:43:57.384Z,1.20
2023-02-22T10:46:28.587Z,0.83
2023-02-22T10:49:03.694Z,0.70
2023-02-22T10:51:32.896Z,1.73
2023-02-22T10:54:21.139Z,1.00
2023-02-22T10:56:51.283Z,0.93
2023-02-22T10:59:34.186Z,0.60
2023-02-22T11:02:11.000Z,0.97
2023-02-22T11:04:50.870Z,1.07
2023-02-22T11:07:23.391Z,1.37
2023-02-22T11:09:54.717Z,0.90
2023-02-22T11:12:29.340Z,1.33
2023-02-22T11:14:59.280Z,1.10
2023-02-22T11:17:32.713Z,1.00
2023-02-22T11:20:01.669Z,0.60
2023-02-22T11:22:33.409Z,1.03
2023-02-22T11:25:04.353Z,1.13
2023-02-22T11:27:40.579Z,0.90
2023-02-22T11:30:35.509Z,0.70
2023-02-22T11:33:23.362Z,0.60
2023-02-22T11:35:54.238Z,1.20
2023-02-22T11:38:24.849Z,0.97
2023-02-22T11:41:09.289Z,0.37
2023-02-22T11:43:37.709Z,1.33
2023-02-22T11:46:11.036Z,1.07
2023-02-22T11:48:44.750Z,1.10
2023-02-22T11:51:40.188Z,2.00
2023-02-22T11:54:29.030Z,1.43
2023-02-22T11:57:07.357Z,1.20
2023-02-22T11:59:43.054Z,1.30
2023-02-22T12:02:32.435Z,0.70
2023-02-22T12:05:22.318Z,1.20
2023-02-22T12:08:18.913Z,1.10
2023-02-22T12:10:59.009Z,1.23
2023-02-22T12:13:41.576Z,0.63
2023-02-22T12:16:20.716Z,0.50
2023-02-22T12:19:14.554Z,1.00
2023-02-22T12:21:48.609Z,0.80
2023-02-22T12:24:21.506Z,0.57
2023-02-22T12:26:55.145Z,0.70
2023-02-22T12:29:29.581Z,0.77
2023-02-22T12:32:03.271Z,0.90
2023-02-22T12:34:41.532Z,0.87
2023-02-22T12:37:19.151Z,0.73
2023-02-22T12:40:02.219Z,1.00
2023-02-22T12:42:48.522Z,0.70
2023-02-22T12:45:36.420Z,0.50
2023-02-22T12:48:26.705Z,0.37
2023-02-22T12:51:00.961Z,0.33
2023-02-22T12:53:40.602Z,0.50
2023-02-22T12:56:27.890Z,0.77
2023-02-22T12:59:02.990Z,0.83
2023-02-22T13:01:36.408Z,1.00
2023-02-22T13:04:19.412Z,1.20
2023-02-22T13:07:06.899Z,1.10
2023-02-22T13:10:02.140Z,0.80
2023-02-22T13:12:40.192Z,0.80
2023-02-22T13:15:20.650Z,0.90
2023-02-22T13:18:01.950Z,0.80
2023-02-22T13:20:35.673Z,0.93
2023-02-22T13:23:13.071Z,0.73
2023-02-22T13:25:48.292Z,0.70
2023-02-22T13:28:23.655Z,1.50
2023-02-22T13:31:07.036Z,0.90
2023-02-22T13:33:51.637Z,0.90
2023-02-22T13:36:30.799Z,0.70
2023-02-22T13:39:20.551Z,1.00
2023-02-22T13:42:10.544Z,1.40
2023-02-22T13:45:05.156Z,0.90
2023-02-22T13:47:46.051Z,1.50
2023-02-22T13:50:52.072Z,0.77
2023-02-22T13:53:25.269Z,1.30
2023-02-22T13:56:00.776Z,1.17
2023-02-22T13:58:29.481Z,1.07
2023-02-22T14:01:00.160Z,0.90
2023-02-22T14:03:41.327Z,1.20
2023-02-22T14:06:13.176Z,0.80
2023-02-22T14:08:48.608Z,0.63
2023-02-22T14:11:45.997Z,0.57
2023-02-22T14:14:19.332Z,0.83
2023-02-22T14:17:23.142Z,0.80
2023-02-22T14:20:30.461Z,1.10
2023-02-22T14:23:19.564Z,0.57
2023-02-22T14:25:49.143Z,0.73
2023-02-22T14:28:50.831Z,0.53
2023-02-22T14:31:34.876Z,0.57
2023-02-22T14:34:11.500Z,0.70
2023-02-22T14:36:51.731Z,0.70
2023-02-22T14:39:24.979Z,1.90
2023-02-22T14:42:01.609Z,0.60
2023-02-22T14:44:35.990Z,1.00
2023-02-22T14:47:08.610Z,0.60
2023-02-22T14:49:44.250Z,0.83
2023-02-22T14:52:23.185Z,0.73
2023-02-22T14:54:59.870Z,1.10
2023-02-22T14:57:39.093Z,0.90
2023-02-22T15:00:22.848Z,0.80
2023-02-22T15:02:57.500Z,0.63
2023-02-22T15:05:31.276Z,0.73
2023-02-22T15:08:00.881Z,0.67
2023-02-22T15:10:31.878Z,0.83
2023-02-22T15:13:21.247Z,1.10
2023-02-22T15:15:50.737Z,0.70
2023-02-22T15:18:32.857Z,0.63
2023-02-22T15:21:07.259Z,0.70
2023-02-22T15:23:44.024Z,0.60
2023-02-22T15:26:26.793Z,0.73
2023-02-22T15:28:57.124Z,0.70
2023-02-22T15:31:31.738Z,0.50
2023-02-22T15:34:11.927Z,0.67
2023-02-22T15:36:42.594Z,0.87
2023-02-22T15:39:20.694Z,0.70
2023-02-22T15:41:48.780Z,1.30
2023-02-22T15:44:23.612Z,0.97
2023-02-22T15:46:54.566Z,0.73
2023-02-22T15:49:25.105Z,1.13
2023-02-22T15:52:05.692Z,0.80
2023-02-22T15:54:41.667Z,1.00
2023-02-22T15:57:10.446Z,1.00
2023-02-22T15:59:44.940Z,0.80
2023-02-22T16:02:31.546Z,1.30
2023-02-22T16:05:03.138Z,1.80
2023-02-22T16:07:33.372Z,0.97
2023-02-22T16:10:09.194Z,1.60
2023-02-22T16:12:37.698Z,1.07
2023-02-22T16:15:16.715Z,1.17
2023-02-22T16:18:00.999Z,1.47
2023-02-22T16:20:35.571Z,1.27
2023-02-22T16:23:24.956Z,1.10
2023-02-22T16:26:14.194Z,1.40
2023-02-22T16:28:52.027Z,1.60
2023-02-22T16:31:25.818Z,2.17
2023-02-22T16:33:55.138Z,1.27
2023-02-22T16:36:26.553Z,0.90
2023-02-22T16:38:56.333Z,1.63
2023-02-22T16:41:24.713Z,1.27
2023-02-22T16:43:52.812Z,0.80
2023-02-22T16:46:21.270Z,0.90
2023-02-22T16:48:49.559Z,1.20
2023-02-22T16:51:24.315Z,1.10
2023-02-22T16:53:56.249Z,0.87
2023-02-22T16:56:31.115Z,1.03
2023-02-22T16:59:06.226Z,1.27
2023-02-22T17:01:35.476Z,1.10
2023-02-22T17:04:04.734Z,0.87
2023-02-22T17:06:32.712Z,1.10
2023-02-22T17:09:02.093Z,0.90
2023-02-22T17:11:30.568Z,4.03
2023-02-22T17:14:00.113Z,1.20
2023-02-22T17:16:29.245Z,1.97
2023-02-22T17:18:57.733Z,1.80
2023-02-22T17:21:26.240Z,1.10
2023-02-22T17:23:54.328Z,1.20
2023-02-22T17:26:26.276Z,1.60
2023-02-22T17:28:54.292Z,3.40
2023-02-22T17:31:28.125Z,1.37
2023-02-22T17:33:59.296Z,3.07
2023-02-22T17:36:27.411Z,1.60
2023-02-22T17:38:55.808Z,2.83
2023-02-22T17:41:25.461Z,3.17
2023-02-22T17:43:54.572Z,1.60
2023-02-22T17:46:22.670Z,1.87
2023-02-22T17:48:51.892Z,1.50
2023-02-22T17:51:19.883Z,1.17
2023-02-22T17:53:48.122Z,1.60
2023-02-22T17:56:19.493Z,1.13
2023-02-22T17:58:53.307Z,2.13
2023-02-22T18:01:27.238Z,1.33
2023-02-22T18:03:57.367Z,1.37
2023-02-22T18:06:28.822Z,2.20
2023-02-22T18:08:58.574Z,2.53
2023-02-22T18:11:27.755Z,2.13
2023-02-22T18:13:58.783Z,2.30
2023-02-22T18:16:27.828Z,1.80
2023-02-22T18:19:01.782Z,1.13
2023-02-22T18:21:29.784Z,1.60
2023-02-22T18:23:58.713Z,1.57
2023-02-22T18:26:28.668Z,2.57
2023-02-22T18:28:59.971Z,2.00
2023-02-22T18:31:28.175Z,3.43
2023-02-22T18:33:58.482Z,3.40
2023-02-22T18:36:27.342Z,3.10
2023-02-22T18:38:58.279Z,3.13
2023-02-22T18:44:43.436Z,1.70
2023-02-22T18:47:12.995Z,1.17
2023-02-22T18:49:43.061Z,1.40
2023-02-22T18:52:12.209Z,0.53
2023-02-22T18:54:40.508Z,4.07
2023-02-22T18:57:08.972Z,1.30
2023-02-22T18:59:38.128Z,1.53
2023-02-22T19:02:06.393Z,2.37
2023-02-22T19:04:36.128Z,1.17
2023-02-22T19:07:04.123Z,1.27
2023-02-22T19:09:32.391Z,1.00
2023-02-22T19:12:00.476Z,1.10
2023-02-22T19:14:36.872Z,1.63
2023-02-22T19:17:07.533Z,1.00
2023-02-22T19:19:37.096Z,1.73
2023-02-22T19:22:05.506Z,2.33
2023-02-22T19:24:33.695Z,1.23
2023-02-22T19:27:01.890Z,2.33
2023-02-22T19:29:31.224Z,2.23
2023-02-22T19:31:59.610Z,1.40
2023-02-22T19:34:28.068Z,2.17
2023-02-22T19:37:00.719Z,1.60
2023-02-22T19:39:33.128Z,1.60
2023-02-22T19:42:02.069Z,2.40
2023-02-22T19:44:36.423Z,1.90
2023-02-22T19:47:09.211Z,3.40
2023-02-22T19:49:41.540Z,2.77
2023-02-22T19:52:12.115Z,3.40
2023-02-22T19:54:40.934Z,3.10
2023-02-22T19:57:09.492Z,3.00
2023-02-22T19:59:38.094Z,1.73
2023-02-22T20:02:07.773Z,1.37
2023-02-22T20:04:37.545Z,2.00
2023-02-22T20:07:06.241Z,1.30
2023-02-22T20:09:37.378Z,2.20
2023-02-22T20:12:08.766Z,1.70
2023-02-22T20:14:37.356Z,2.30
2023-02-22T20:17:07.153Z,1.57
2023-02-22T20:19:45.877Z,0.90
2023-02-22T20:22:14.043Z,1.30
2023-02-22T20:24:43.535Z,1.03
2023-02-22T20:27:13.084Z,1.17
2023-02-22T20:29:41.236Z,1.10
2023-02-22T20:32:15.100Z,0.90
2023-02-22T20:34:47.197Z,1.10
2023-02-22T20:37:16.005Z,1.17
2023-02-22T20:39:46.762Z,1.03
2023-02-22T20:42:15.593Z,1.20
2023-02-22T20:44:45.289Z,0.67
2023-02-22T20:47:13.312Z,1.53
2023-02-22T20:49:41.387Z,1.87
2023-02-22T20:52:09.335Z,1.83
2023-02-22T20:54:38.450Z,6.23
2023-02-22T20:57:08.136Z,4.90
2023-02-22T20:59:36.649Z,1.73
2023-02-22T21:02:05.173Z,5.77
2023-02-22T21:04:35.904Z,2.37
2023-02-22T21:07:04.376Z,1.10
2023-02-22T21:09:33.824Z,0.90
2023-02-22T21:12:02.013Z,0.80
2023-02-22T21:14:38.920Z,1.53
2023-02-22T21:17:11.195Z,1.77
2023-02-22T21:19:39.446Z,1.37
2023-02-22T21:22:12.351Z,1.00
2023-02-22T21:24:40.888Z,3.80
2023-02-22T21:27:08.876Z,1.97
2023-02-22T21:29:38.730Z,2.57
2023-02-22T21:32:08.748Z,2.97
2023-02-22T21:34:37.334Z,2.57
2023-02-22T21:37:08.390Z,4.30
2023-02-22T21:39:36.596Z,8.93
2023-02-22T21:42:07.445Z,2.40
2023-02-22T21:44:38.487Z,1.57
2023-02-22T21:47:06.628Z,2.27
2023-02-22T21:49:35.147Z,2.67
2023-02-22T21:52:07.765Z,2.03
2023-02-22T21:54:35.822Z,1.20
2023-02-22T21:57:06.304Z,1.13
2023-02-22T21:59:35.122Z,1.33
2023-02-22T22:02:05.726Z,1.27
2023-02-22T22:04:35.397Z,1.33
2023-02-22T22:07:04.572Z,1.63
2023-02-22T22:09:37.165Z,1.80
2023-02-22T22:12:06.178Z,1.57
2023-02-22T22:14:36.322Z,1.50
2023-02-22T22:17:09.405Z,1.80
2023-02-22T22:19:40.724Z,2.47
2023-02-22T22:22:09.271Z,1.47
2023-02-22T22:24:46.016Z,2.17
2023-02-22T22:27:17.476Z,1.50
2023-02-22T22:29:45.557Z,0.97
2023-02-22T22:32:16.278Z,1.67
2023-02-22T22:34:44.542Z,1.40
2023-02-22T22:37:13.376Z,1.30
2023-02-22T22:39:41.456Z,1.20
2023-02-22T22:42:10.619Z,2.03
2023-02-22T22:44:42.243Z,1.40
2023-02-22T22:47:12.399Z,1.60
2023-02-22T22:49:42.803Z,1.37
2023-02-22T22:52:12.116Z,1.67
2023-02-22T22:54:40.351Z,1.03
2023-02-22T22:57:08.727Z,1.40
2023-02-22T22:59:37.454Z,1.27
2023-02-22T23:02:10.655Z,0.63
2023-02-22T23:04:39.082Z,0.90
2023-02-22T23:07:08.825Z,1.10
2023-02-22T23:09:40.089Z,1.00
2023-02-22T23:12:09.916Z,1.17
2023-02-22T23:14:44.409Z,1.03
2023-02-22T23:17:16.326Z,1.00
2023-02-22T23:19:47.558Z,1.53
2023-02-22T23:22:17.000Z,1.00
2023-02-22T23:24:45.685Z,1.30
2023-02-22T23:27:15.913Z,1.13
2023-02-22T23:29:47.092Z,1.10
2023-02-22T23:32:18.943Z,1.50
2023-02-22T23:34:49.742Z,1.27
2023-02-22T23:37:20.950Z,1.53
2023-02-22T23:39:51.245Z,0.77
2023-02-22T23:42:19.677Z,1.27
2023-02-22T23:44:49.385Z,1.40
2023-02-22T23:47:19.107Z,1.43
2023-02-22T23:49:49.656Z,1.70
2023-02-22T23:52:24.630Z,1.90
2023-02-22T23:54:54.819Z,1.57
2023-02-22T23:57:24.459Z,1.70
2023-02-22T23:59:57.224Z,1.50
